Terminal Aerodrome Forecast
Issued by NWS

Home | Current Version | Previous Version | Graphics & Text | Print | Product List | Glossary On
Versions: 1 2 3 4 5 6 7 8 9 10 11 12 13 14 15 16 17 18 19 20 21 22 23 24 25 26 27 28 29
000
FTUS43 KGRB 161700
TAFRHI
TAF
KRHI 161724Z 1618/1718 22004KT P6SM SCT100 BKN250
     FM162100 25005KT P6SM BKN090
     FM170000 VRB03KT P6SM BKN050
     FM171000 VRB03KT P6SM SCT040
     FM171300 25005KT P6SM SCT050=

USA.gov is the U.S. government's official web portal to all federal, state and local government web resources and services.